Time;durP1;ratioP1;P1;durP2;ratioP2;P2;SDS_P1;SDS_P2;PMS_P1;PMS_P2;Temp;Humidity;BMP_temperature;BMP_pressure;BME280_temperature;BME280_humidity;BME280_pressure;Samples;Min_cycle;Max_cycle;Signal;HPM_P1;HPM_P2
2023/07/12 00:00:54;;;;;;;9.25;5.72;;;;;;;;;;5053294;28;20293;-74
2023/07/12 00:03:20;;;;;;;12.60;5.53;;;;;;;;;;5053172;28;20033;-74
2023/07/12 00:05:47;;;;;;;9.00;5.55;;;;;;;;;;5051743;28;20033;-74
2023/07/12 00:08:17;;;;;;;9.98;6.03;;;;;;;;;;5053092;28;20029;-74
2023/07/12 00:10:42;;;;;;;9.75;5.97;;;;;;;;;;5053067;28;20060;-74
2023/07/12 00:13:09;;;;;;;9.85;6.35;;;;;;;;;;5052914;28;20048;-75
2023/07/12 00:15:36;;;;;;;9.80;6.22;;;;;;;;;;5050871;28;20553;-75
2023/07/12 00:18:01;;;;;;;10.77;6.32;;;;;;;;;;5053928;28;20060;-75
2023/07/12 00:20:48;;;;;;;9.80;5.78;;;;;;;;;;5053533;28;20017;-74
2023/07/12 00:23:14;;;;;;;7.70;5.22;;;;;;;;;;5053638;28;20048;-75
2023/07/12 00:25:41;;;;;;;7.93;5.03;;;;;;;;;;5053945;28;20027;-75
2023/07/12 00:28:20;;;;;;;10.70;5.72;;;;;;;;;;5052843;28;20033;-74
2023/07/12 00:30:46;;;;;;;8.20;5.18;;;;;;;;;;5051986;28;20021;-74
2023/07/12 00:33:11;;;;;;;10.50;6.00;;;;;;;;;;5052403;28;20467;-74
2023/07/12 00:35:38;;;;;;;7.43;5.50;;;;;;;;;;5052046;28;20586;-74
2023/07/12 00:38:05;;;;;;;7.40;5.63;;;;;;;;;;5052959;28;20483;-75
2023/07/12 00:40:51;;;;;;;9.35;5.82;;;;;;;;;;5053597;28;20040;-74
2023/07/12 00:43:21;;;;;;;10.73;5.78;;;;;;;;;;5056289;28;20036;-75
2023/07/12 00:45:49;;;;;;;10.80;5.53;;;;;;;;;;5056694;28;20025;-75
2023/07/12 00:48:15;;;;;;;7.90;5.50;;;;;;;;;;5056216;28;20121;-74
2023/07/12 00:50:40;;;;;;;9.57;5.90;;;;;;;;;;5056832;28;20503;-75
2023/07/12 00:53:13;;;;;;;10.05;5.70;;;;;;;;;;5056470;28;20399;-75
2023/07/12 00:56:05;;;;;;;6.85;5.25;;;;;;;;;;5056875;28;20096;-75
2023/07/12 00:58:35;;;;;;;7.50;5.97;;;;;;;;;;5055330;28;20052;-74
2023/07/12 01:01:02;;;;;;;9.02;6.20;;;;;;;;;;5055170;28;20539;-74
2023/07/12 01:03:30;;;;;;;11.23;5.75;;;;;;;;;;5056816;28;20077;-74
2023/07/12 01:05:56;;;;;;;10.57;6.05;;;;;;;;;;5056192;28;20085;-75
2023/07/12 01:08:21;;;;;;;11.23;6.30;;;;;;;;;;5057004;28;20025;-75
2023/07/12 01:10:47;;;;;;;8.75;5.65;;;;;;;;;;5056492;28;20025;-74
2023/07/12 01:13:13;;;;;;;7.90;5.80;;;;;;;;;;5056200;28;20029;-74
2023/07/12 01:15:38;;;;;;;7.20;5.80;;;;;;;;;;5056089;28;20476;-74
2023/07/12 01:18:06;;;;;;;10.90;5.90;;;;;;;;;;5056423;28;20258;-74
2023/07/12 01:20:39;;;;;;;11.32;5.90;;;;;;;;;;5056125;28;20506;-74
2023/07/12 01:23:05;;;;;;;9.88;6.00;;;;;;;;;;5056040;28;20036;-74
2023/07/12 01:25:32;;;;;;;12.57;6.15;;;;;;;;;;5055882;28;20542;-74
2023/07/12 01:27:57;;;;;;;8.80;5.53;;;;;;;;;;5056006;28;20414;-75
2023/07/12 01:30:23;;;;;;;9.47;5.93;;;;;;;;;;5056422;28;20108;-75
2023/07/12 01:32:51;;;;;;;9.43;5.90;;;;;;;;;;5056360;28;20056;-75
2023/07/12 01:35:16;;;;;;;8.10;6.00;;;;;;;;;;5055719;28;20013;-75
2023/07/12 01:37:42;;;;;;;7.27;6.00;;;;;;;;;;5055840;28;20082;-75
2023/07/12 01:40:08;;;;;;;8.80;5.67;;;;;;;;;;5055716;28;20033;-75
2023/07/12 01:42:33;;;;;;;9.75;6.22;;;;;;;;;;5056030;28;20025;-75
2023/07/12 01:44:58;;;;;;;11.57;6.23;;;;;;;;;;5055571;28;20029;-75
2023/07/12 01:47:23;;;;;;;7.90;5.50;;;;;;;;;;5055633;28;20033;-75
2023/07/12 01:49:48;;;;;;;7.60;5.60;;;;;;;;;;5055891;28;20112;-75
2023/07/12 01:52:14;;;;;;;7.90;5.67;;;;;;;;;;5055585;28;20117;-75
2023/07/12 01:54:39;;;;;;;7.10;5.53;;;;;;;;;;5055709;28;20055;-74
2023/07/12 01:57:05;;;;;;;10.03;6.00;;;;;;;;;;5055449;28;20067;-75
2023/07/12 01:59:31;;;;;;;9.02;5.95;;;;;;;;;;5055338;28;20028;-75
2023/07/12 02:01:56;;;;;;;8.93;5.77;;;;;;;;;;5055420;28;20031;-74
2023/07/12 02:04:21;;;;;;;7.57;6.07;;;;;;;;;;5055363;28;20371;-75
2023/07/12 02:06:46;;;;;;;9.93;6.10;;;;;;;;;;5055208;28;20072;-75
2023/07/12 02:09:11;;;;;;;7.87;5.80;;;;;;;;;;5055347;28;20083;-74
2023/07/12 02:11:37;;;;;;;14.00;6.67;;;;;;;;;;5055223;28;20033;-75
2023/07/12 02:14:02;;;;;;;12.53;6.20;;;;;;;;;;5053890;28;20067;-74
2023/07/12 02:16:27;;;;;;;10.77;6.67;;;;;;;;;;5055070;28;20269;-75
2023/07/12 02:18:52;;;;;;;7.80;6.03;;;;;;;;;;5053615;28;20844;-75
2023/07/12 02:21:18;;;;;;;9.25;6.10;;;;;;;;;;5053948;28;20553;-75
2023/07/12 02:23:43;;;;;;;8.90;6.07;;;;;;;;;;5054498;28;20031;-74
2023/07/12 02:26:08;;;;;;;12.57;6.03;;;;;;;;;;5055116;28;20353;-75
2023/07/12 02:28:33;;;;;;;8.00;5.90;;;;;;;;;;5053370;28;20269;-75
2023/07/12 02:31:17;;;;;;;11.03;6.60;;;;;;;;;;5054755;28;20025;-74
2023/07/12 02:33:43;;;;;;;11.68;6.00;;;;;;;;;;5054171;28;20296;-74
2023/07/12 02:36:08;;;;;;;9.80;6.20;;;;;;;;;;5053399;28;20064;-75
2023/07/12 02:38:33;;;;;;;8.60;6.20;;;;;;;;;;5054895;28;20028;-75
2023/07/12 02:40:59;;;;;;;11.02;6.22;;;;;;;;;;5054791;28;20316;-74
2023/07/12 02:43:24;;;;;;;11.70;5.67;;;;;;;;;;5054561;28;20021;-75
2023/07/12 02:45:49;;;;;;;10.63;6.10;;;;;;;;;;5054355;28;20281;-74
2023/07/12 02:48:14;;;;;;;9.35;5.60;;;;;;;;;;5054483;28;20112;-74
2023/07/12 02:50:39;;;;;;;11.13;6.47;;;;;;;;;;5054514;28;20040;-74
2023/07/12 02:53:17;;;;;;;11.50;6.17;;;;;;;;;;5054659;28;20021;-74
2023/07/12 02:55:42;;;;;;;9.40;5.93;;;;;;;;;;5054273;28;20427;-74
2023/07/12 02:58:07;;;;;;;9.18;5.32;;;;;;;;;;5052967;28;20025;-74
2023/07/12 03:00:32;;;;;;;10.20;5.50;;;;;;;;;;5054625;28;20373;-75
2023/07/12 03:02:58;;;;;;;15.17;5.90;;;;;;;;;;5053501;28;20384;-75
2023/07/12 03:05:23;;;;;;;7.37;4.90;;;;;;;;;;5053930;28;20426;-74
2023/07/12 03:07:48;;;;;;;7.60;4.90;;;;;;;;;;5054146;28;20396;-74
2023/07/12 03:10:13;;;;;;;10.87;4.83;;;;;;;;;;5053123;28;20391;-74
2023/07/12 03:12:39;;;;;;;10.67;5.30;;;;;;;;;;5052704;28;20398;-74
2023/07/12 03:15:04;;;;;;;7.40;4.70;;;;;;;;;;5054061;28;20258;-74
2023/07/12 03:17:29;;;;;;;10.35;5.28;;;;;;;;;;5054153;28;20258;-74
2023/07/12 03:19:55;;;;;;;12.60;4.20;;;;;;;;;;5054112;28;20048;-73
2023/07/12 03:22:20;;;;;;;9.33;4.33;;;;;;;;;;5053934;28;20028;-74
2023/07/12 03:24:45;;;;;;;9.50;4.57;;;;;;;;;;5053558;28;20025;-74
2023/07/12 03:27:10;;;;;;;6.10;3.73;;;;;;;;;;5053726;28;20028;-74
2023/07/12 03:29:36;;;;;;;7.40;3.85;;;;;;;;;;5052549;28;20029;-75
2023/07/12 03:32:01;;;;;;;8.65;3.92;;;;;;;;;;5053714;28;20059;-74
2023/07/12 03:34:27;;;;;;;7.88;4.13;;;;;;;;;;5053593;28;20044;-75
2023/07/12 03:36:52;;;;;;;11.80;5.00;;;;;;;;;;5053459;28;20039;-74
2023/07/12 03:39:17;;;;;;;7.68;5.03;;;;;;;;;;5053536;28;20534;-74
2023/07/12 03:41:42;;;;;;;11.13;5.23;;;;;;;;;;5053322;28;20120;-74
2023/07/12 03:44:08;;;;;;;8.63;5.20;;;;;;;;;;5053692;28;20161;-74
2023/07/12 03:46:33;;;;;;;9.40;4.80;;;;;;;;;;5053200;28;20606;-75
2023/07/12 03:48:58;;;;;;;7.57;5.53;;;;;;;;;;5052101;28;20315;-75
2023/07/12 03:51:23;;;;;;;7.27;4.90;;;;;;;;;;5053305;28;20056;-75
2023/07/12 03:53:49;;;;;;;9.00;5.10;;;;;;;;;;5053288;28;20266;-75
2023/07/12 03:56:14;;;;;;;10.00;4.95;;;;;;;;;;5053155;28;20502;-74
2023/07/12 03:58:40;;;;;;;10.70;5.83;;;;;;;;;;5053702;28;20027;-75
2023/07/12 04:01:09;;;;;;;10.65;5.82;;;;;;;;;;5051852;28;20043;-74
2023/07/12 04:03:35;;;;;;;9.52;5.45;;;;;;;;;;5051833;28;20020;-74
2023/07/12 04:06:03;;;;;;;10.50;5.25;;;;;;;;;;5051701;28;20032;-74
2023/07/12 04:08:28;;;;;;;7.72;5.50;;;;;;;;;;5053026;28;20055;-74
2023/07/12 04:10:55;;;;;;;8.23;4.80;;;;;;;;;;5053266;28;20021;-74
2023/07/12 04:13:21;;;;;;;9.23;4.20;;;;;;;;;;5053437;28;20106;-74
2023/07/12 04:15:47;;;;;;;7.03;4.15;;;;;;;;;;5051921;28;20033;-74
2023/07/12 04:18:12;;;;;;;5.50;3.58;;;;;;;;;;5053090;28;20031;-74
2023/07/12 04:20:38;;;;;;;7.77;3.30;;;;;;;;;;5052862;28;20063;-75
2023/07/12 04:23:04;;;;;;;6.35;3.50;;;;;;;;;;5052902;28;20780;-74
2023/07/12 04:25:29;;;;;;;5.60;2.95;;;;;;;;;;5052667;28;20025;-75
2023/07/12 04:27:54;;;;;;;5.22;3.25;;;;;;;;;;5051599;28;20028;-75
2023/07/12 04:30:20;;;;;;;5.67;3.43;;;;;;;;;;5052770;28;20495;-75
2023/07/12 04:32:47;;;;;;;5.13;3.63;;;;;;;;;;5052725;28;20254;-75
2023/07/12 04:35:13;;;;;;;7.53;3.40;;;;;;;;;;5052981;28;20032;-75
2023/07/12 04:37:44;;;;;;;9.13;3.70;;;;;;;;;;5052652;28;20025;-75
2023/07/12 04:40:10;;;;;;;11.88;4.15;;;;;;;;;;5052957;28;20065;-75
2023/07/12 04:42:36;;;;;;;7.70;3.50;;;;;;;;;;5053064;28;20025;-75
2023/07/12 04:45:01;;;;;;;6.83;3.37;;;;;;;;;;5052558;28;20082;-74
2023/07/12 04:47:26;;;;;;;5.00;2.90;;;;;;;;;;5052624;28;20025;-74
2023/07/12 04:49:51;;;;;;;4.97;2.80;;;;;;;;;;5052911;28;20086;-75
2023/07/12 04:52:16;;;;;;;4.40;2.87;;;;;;;;;;5052610;28;20029;-75
2023/07/12 04:54:42;;;;;;;5.10;2.97;;;;;;;;;;5052765;28;20296;-75
2023/07/12 04:57:08;;;;;;;4.50;3.40;;;;;;;;;;5052683;28;20060;-75
2023/07/12 04:59:34;;;;;;;6.25;4.10;;;;;;;;;;5052469;28;20106;-75
2023/07/12 05:01:59;;;;;;;8.68;4.30;;;;;;;;;;5052442;28;20111;-75
2023/07/12 05:04:25;;;;;;;9.33;4.70;;;;;;;;;;5052449;28;20547;-75
2023/07/12 05:06:51;;;;;;;6.70;4.17;;;;;;;;;;5052416;28;20285;-74
2023/07/12 05:09:17;;;;;;;7.93;4.32;;;;;;;;;;5051143;28;20307;-74
2023/07/12 05:11:42;;;;;;;14.38;4.70;;;;;;;;;;5052545;28;20115;-74
2023/07/12 05:14:07;;;;;;;8.63;4.90;;;;;;;;;;5052392;28;20064;-75
2023/07/12 05:16:32;;;;;;;8.97;4.83;;;;;;;;;;5052175;28;20072;-74
2023/07/12 05:18:58;;;;;;;8.60;4.33;;;;;;;;;;5052585;28;20123;-74
2023/07/12 05:21:25;;;;;;;10.33;4.50;;;;;;;;;;5052796;28;20060;-74
2023/07/12 05:23:50;;;;;;;7.88;4.40;;;;;;;;;;5053438;28;20028;-76
2023/07/12 05:26:15;;;;;;;6.00;4.50;;;;;;;;;;5053675;28;20024;-75
2023/07/12 05:28:41;;;;;;;7.23;4.10;;;;;;;;;;5054924;28;20103;-75
2023/07/12 05:31:07;;;;;;;8.40;4.40;;;;;;;;;;5056027;28;20037;-75
2023/07/12 05:33:32;;;;;;;8.93;4.65;;;;;;;;;;5054627;28;20305;-75
2023/07/12 05:35:58;;;;;;;6.63;3.97;;;;;;;;;;5055414;28;20090;-77
2023/07/12 05:38:23;;;;;;;8.03;4.10;;;;;;;;;;5055275;28;20028;-75
2023/07/12 05:40:48;;;;;;;14.75;4.20;;;;;;;;;;5055408;28;20266;-75
2023/07/12 05:43:14;;;;;;;7.20;4.20;;;;;;;;;;5055954;28;20024;-75
2023/07/12 05:45:40;;;;;;;7.30;4.15;;;;;;;;;;5054881;28;20104;-75
2023/07/12 05:48:06;;;;;;;7.72;4.10;;;;;;;;;;5055183;28;20108;-75
2023/07/12 05:50:31;;;;;;;10.67;3.80;;;;;;;;;;5055730;28;20440;-75
2023/07/12 05:52:56;;;;;;;5.95;3.75;;;;;;;;;;5055499;28;20547;-75
2023/07/12 05:55:22;;;;;;;7.43;4.03;;;;;;;;;;5055646;28;20108;-75
2023/07/12 05:57:48;;;;;;;10.67;4.20;;;;;;;;;;5054990;28;20294;-74
2023/07/12 06:00:13;;;;;;;8.40;3.90;;;;;;;;;;5054784;28;20258;-75
2023/07/12 06:02:39;;;;;;;8.95;3.88;;;;;;;;;;5055321;28;20090;-74
2023/07/12 06:05:07;;;;;;;8.00;4.40;;;;;;;;;;5055240;28;20394;-74
2023/07/12 06:07:33;;;;;;;11.50;4.00;;;;;;;;;;5055296;28;20748;-73
2023/07/12 06:09:59;;;;;;;11.63;4.25;;;;;;;;;;5055385;28;20036;-74
2023/07/12 06:12:25;;;;;;;6.90;3.97;;;;;;;;;;5055194;28;20067;-75
2023/07/12 06:14:50;;;;;;;8.40;4.53;;;;;;;;;;5055533;28;20388;-74
2023/07/12 06:17:16;;;;;;;6.07;4.13;;;;;;;;;;5055116;28;20021;-74
2023/07/12 06:19:41;;;;;;;9.68;5.57;;;;;;;;;;5054204;28;20040;-74
2023/07/12 06:22:06;;;;;;;5.50;3.57;;;;;;;;;;5055105;28;20029;-73
2023/07/12 06:24:31;;;;;;;11.53;3.97;;;;;;;;;;5054839;28;20029;-73
2023/07/12 06:26:56;;;;;;;6.25;3.70;;;;;;;;;;5054827;28;20262;-73
2023/07/12 06:29:22;;;;;;;6.63;3.50;;;;;;;;;;5055461;28;20044;-73
2023/07/12 06:31:47;;;;;;;5.78;3.63;;;;;;;;;;5054726;28;20266;-73
2023/07/12 06:34:12;;;;;;;6.70;3.30;;;;;;;;;;5053503;28;20021;-73
2023/07/12 06:36:38;;;;;;;5.77;3.17;;;;;;;;;;5053435;28;20760;-73
2023/07/12 06:39:03;;;;;;;8.13;3.20;;;;;;;;;;5053670;28;20558;-73
2023/07/12 06:41:28;;;;;;;7.43;3.10;;;;;;;;;;5053693;28;20265;-73
2023/07/12 06:43:53;;;;;;;5.60;2.85;;;;;;;;;;5054782;28;20055;-75
2023/07/12 06:46:20;;;;;;;7.00;2.83;;;;;;;;;;5056081;28;20024;-79
2023/07/12 06:48:45;;;;;;;5.15;2.60;;;;;;;;;;5055168;28;20082;-74
2023/07/12 06:51:10;;;;;;;11.40;2.50;;;;;;;;;;5053342;28;20020;-74
2023/07/12 06:53:36;;;;;;;7.90;2.58;;;;;;;;;;5054374;28;20262;-74
2023/07/12 06:56:01;;;;;;;2.90;2.00;;;;;;;;;;5054232;28;20151;-74
2023/07/12 06:58:26;;;;;;;4.20;2.10;;;;;;;;;;5053261;28;20051;-75
2023/07/12 07:00:52;;;;;;;3.67;2.00;;;;;;;;;;5054374;28;20029;-75
2023/07/12 07:03:18;;;;;;;3.95;2.30;;;;;;;;;;5054298;28;20250;-75
2023/07/12 07:05:45;;;;;;;3.33;1.70;;;;;;;;;;5054022;28;20104;-75
2023/07/12 07:08:11;;;;;;;4.65;1.90;;;;;;;;;;5053899;28;20056;-75
2023/07/12 07:10:37;;;;;;;3.92;1.85;;;;;;;;;;5054111;28;20111;-75
2023/07/12 07:13:02;;;;;;;2.85;1.42;;;;;;;;;;5054093;28;20617;-73
2023/07/12 07:15:27;;;;;;;4.65;1.58;;;;;;;;;;5054378;28;20100;-74
2023/07/12 07:17:53;;;;;;;3.57;1.60;;;;;;;;;;5053878;28;20096;-73
2023/07/12 07:20:18;;;;;;;5.75;1.50;;;;;;;;;;5053855;28;20250;-72
2023/07/12 07:22:43;;;;;;;2.93;1.50;;;;;;;;;;5052971;28;20733;-74
2023/07/12 07:25:08;;;;;;;5.00;1.60;;;;;;;;;;5052004;28;20285;-73
2023/07/12 07:27:34;;;;;;;7.93;1.40;;;;;;;;;;5052975;28;20136;-73
2023/07/12 07:29:59;;;;;;;2.63;1.70;;;;;;;;;;5054306;28;20028;-76
2023/07/12 07:32:24;;;;;;;2.13;1.60;;;;;;;;;;5051198;28;20694;-74
2023/07/12 07:34:49;;;;;;;2.80;2.07;;;;;;;;;;5052480;28;20269;-73
2023/07/12 07:37:15;;;;;;;1.90;1.50;;;;;;;;;;5053260;28;20033;-73
2023/07/12 07:39:40;;;;;;;3.38;1.50;;;;;;;;;;5053353;28;20025;-73
2023/07/12 07:42:06;;;;;;;3.97;1.70;;;;;;;;;;5052220;28;20419;-72
2023/07/12 07:44:31;;;;;;;3.53;1.45;;;;;;;;;;5053092;28;20029;-73
2023/07/12 07:46:56;;;;;;;10.70;1.93;;;;;;;;;;5052955;28;20033;-72
2023/07/12 07:49:21;;;;;;;3.53;1.50;;;;;;;;;;5052698;28;20032;-73
2023/07/12 07:51:46;;;;;;;3.53;1.30;;;;;;;;;;5051643;28;20025;-72
2023/07/12 07:54:12;;;;;;;7.90;1.40;;;;;;;;;;5053434;28;20772;-72
2023/07/12 07:56:37;;;;;;;3.70;1.48;;;;;;;;;;5051529;28;20116;-72
2023/07/12 07:59:02;;;;;;;1.70;1.30;;;;;;;;;;5052845;28;20031;-72
2023/07/12 08:01:28;;;;;;;3.03;1.40;;;;;;;;;;5051499;28;20276;-77
2023/07/12 08:03:53;;;;;;;6.90;1.80;;;;;;;;;;5052970;28;20756;-72
2023/07/12 08:06:18;;;;;;;5.33;1.40;;;;;;;;;;5053204;28;20431;-73
2023/07/12 08:08:43;;;;;;;5.07;1.10;;;;;;;;;;5053417;28;20533;-73
2023/07/12 08:11:09;;;;;;;2.67;1.05;;;;;;;;;;5051491;28;20028;-72
2023/07/12 08:13:34;;;;;;;5.72;1.08;;;;;;;;;;5051446;28;20039;-73
2023/07/12 08:16:00;;;;;;;2.35;1.33;;;;;;;;;;5052617;28;20055;-72
2023/07/12 08:18:25;;;;;;;1.73;1.15;;;;;;;;;;5052993;28;20032;-73
2023/07/12 08:21:00;;;;;;;2.00;1.30;;;;;;;;;;5053102;28;20365;-73
2023/07/12 08:23:25;;;;;;;3.22;1.20;;;;;;;;;;5052658;28;20021;-73
2023/07/12 08:25:52;;;;;;;3.53;1.20;;;;;;;;;;5052453;28;20036;-74
2023/07/12 08:28:18;;;;;;;5.40;1.20;;;;;;;;;;5051153;28;20029;-73
2023/07/12 08:30:44;;;;;;;2.00;1.10;;;;;;;;;;5052769;28;20025;-74
2023/07/12 08:33:09;;;;;;;1.48;1.17;;;;;;;;;;5052803;28;20033;-72
2023/07/12 08:35:34;;;;;;;6.60;1.40;;;;;;;;;;5052596;28;20036;-73
2023/07/12 08:38:00;;;;;;;2.47;1.10;;;;;;;;;;5052707;28;20041;-74
2023/07/12 08:40:27;;;;;;;2.60;1.30;;;;;;;;;;5052559;28;20103;-76
2023/07/12 08:42:52;;;;;;;1.75;1.20;;;;;;;;;;5054149;28;20024;-78
2023/07/12 08:45:28;;;;;;;3.42;1.30;;;;;;;;;;5053702;28;20423;-76
2023/07/12 08:48:00;;;;;;;2.35;1.20;;;;;;;;;;5052979;28;20549;-74
2023/07/12 08:50:28;;;;;;;3.38;1.40;;;;;;;;;;5053136;28;20029;-72
2023/07/12 08:52:53;;;;;;;2.38;1.20;;;;;;;;;;5053020;28;20033;-74
2023/07/12 08:55:20;;;;;;;2.03;1.20;;;;;;;;;;5052916;28;20032;-76
2023/07/12 08:57:52;;;;;;;2.15;1.30;;;;;;;;;;5051078;28;20036;-74
2023/07/12 09:00:21;;;;;;;4.03;1.30;;;;;;;;;;5052774;28;20017;-74
2023/07/12 09:02:46;;;;;;;7.45;1.40;;;;;;;;;;5057725;28;20387;-78
2023/07/12 09:05:21;;;;;;;5.93;1.60;;;;;;;;;;5056370;28;20027;-74
2023/07/12 09:08:15;;;;;;;5.38;1.85;;;;;;;;;;5058192;28;20036;-79
2023/07/12 09:10:45;;;;;;;4.90;1.75;;;;;;;;;;5058208;28;20095;-75
2023/07/12 09:13:13;;;;;;;4.20;1.73;;;;;;;;;;5055571;28;20059;-75
2023/07/12 09:15:48;;;;;;;3.75;1.67;;;;;;;;;;5057417;28;20024;-74
2023/07/12 09:18:36;;;;;;;1.95;1.50;;;;;;;;;;5056277;28;20035;-74
2023/07/12 09:21:15;;;;;;;5.97;1.88;;;;;;;;;;5056273;28;20537;-75
2023/07/12 09:23:43;;;;;;;3.05;1.83;;;;;;;;;;5056885;28;20083;-74
2023/07/12 09:26:22;;;;;;;7.05;2.10;;;;;;;;;;5055836;28;20092;-74
2023/07/12 09:28:49;;;;;;;7.13;2.47;;;;;;;;;;5055937;28;20103;-74
2023/07/12 09:31:20;;;;;;;7.88;1.77;;;;;;;;;;5055912;28;20446;-74
2023/07/12 09:33:53;;;;;;;8.77;2.00;;;;;;;;;;5056046;28;20542;-74
2023/07/12 09:36:18;;;;;;;4.65;1.80;;;;;;;;;;5055841;28;20449;-73
2023/07/12 09:38:43;;;;;;;6.28;2.00;;;;;;;;;;5055713;28;20061;-75
2023/07/12 09:41:15;;;;;;;5.55;2.10;;;;;;;;;;5056067;28;20027;-74
2023/07/12 09:43:40;;;;;;;3.47;1.90;;;;;;;;;;5056675;28;20116;-73
2023/07/12 09:46:26;;;;;;;6.43;1.90;;;;;;;;;;5055425;28;20457;-74
2023/07/12 09:49:04;;;;;;;4.68;2.10;;;;;;;;;;5055742;28;20036;-75
2023/07/12 09:51:47;;;;;;;4.57;1.80;;;;;;;;;;5055906;28;20111;-77
2023/07/12 09:54:45;;;;;;;7.25;2.03;;;;;;;;;;5055592;28;20064;-74
2023/07/12 09:57:46;;;;;;;5.93;2.10;;;;;;;;;;5054936;28;20025;-74
2023/07/12 10:00:20;;;;;;;7.25;2.00;;;;;;;;;;5055473;28;20025;-75
2023/07/12 10:03:13;;;;;;;2.72;1.80;;;;;;;;;;5055682;28;20056;-74
2023/07/12 10:05:44;;;;;;;3.72;1.92;;;;;;;;;;5055240;28;20033;-74
2023/07/12 10:08:14;;;;;;;5.15;2.10;;;;;;;;;;5053676;28;20491;-73
2023/07/12 10:10:50;;;;;;;6.20;2.10;;;;;;;;;;5055109;28;20499;-74
2023/07/12 10:13:22;;;;;;;5.85;2.00;;;;;;;;;;5053786;28;20029;-74
2023/07/12 10:15:49;;;;;;;6.15;2.00;;;;;;;;;;5055062;28;20029;-74
2023/07/12 10:18:25;;;;;;;5.80;1.92;;;;;;;;;;5056243;28;20443;-73
2023/07/12 10:20:51;;;;;;;4.25;1.80;;;;;;;;;;5054291;28;20029;-74
2023/07/12 10:23:20;;;;;;;5.45;2.05;;;;;;;;;;5055241;28;20108;-74
2023/07/12 10:25:53;;;;;;;3.20;1.88;;;;;;;;;;5054521;28;20068;-74
2023/07/12 10:28:24;;;;;;;4.88;2.20;;;;;;;;;;5054916;28;20057;-74
2023/07/12 10:30:50;;;;;;;3.78;2.10;;;;;;;;;;5054843;28;20039;-75
2023/07/12 10:33:26;;;;;;;3.78;2.00;;;;;;;;;;5054583;28;20405;-74
2023/07/12 10:35:56;;;;;;;4.78;2.20;;;;;;;;;;5055087;28;20375;-74
2023/07/12 10:38:22;;;;;;;5.75;2.10;;;;;;;;;;5055147;28;20120;-74
2023/07/12 10:40:56;;;;;;;5.15;2.38;;;;;;;;;;5055099;28;20056;-74
2023/07/12 10:43:32;;;;;;;6.15;2.33;;;;;;;;;;5053370;28;20028;-74
2023/07/12 10:46:09;;;;;;;4.00;2.15;;;;;;;;;;5053452;28;20021;-74
2023/07/12 10:48:37;;;;;;;2.65;2.00;;;;;;;;;;5054748;28;20017;-75
2023/07/12 10:51:25;;;;;;;5.70;2.22;;;;;;;;;;5054651;28;20032;-75
2023/07/12 10:53:54;;;;;;;5.25;2.17;;;;;;;;;;5054545;28;20029;-76
2023/07/12 10:56:26;;;;;;;7.65;2.65;;;;;;;;;;5053897;28;20067;-75
2023/07/12 10:59:00;;;;;;;6.05;2.10;;;;;;;;;;5054552;28;20033;-75
2023/07/12 11:01:41;;;;;;;6.95;2.40;;;;;;;;;;5052229;28;20028;-75
2023/07/12 11:04:11;;;;;;;6.53;2.55;;;;;;;;;;5052804;28;20021;-74
2023/07/12 11:06:55;;;;;;;3.35;2.50;;;;;;;;;;5055006;28;20036;-73
2023/07/12 11:09:20;;;;;;;5.72;2.58;;;;;;;;;;5052802;28;20115;-74
2023/07/12 11:12:06;;;;;;;3.03;2.33;;;;;;;;;;5054004;28;20064;-75
2023/07/12 11:14:37;;;;;;;7.50;2.70;;;;;;;;;;5053967;28;20029;-75
2023/07/12 11:17:11;;;;;;;46.83;5.07;;;;;;;;;;5053650;28;20069;-74
2023/07/12 11:19:44;;;;;;;21.88;3.97;;;;;;;;;;5053634;28;20021;-74
2023/07/12 11:22:17;;;;;;;11.65;3.75;;;;;;;;;;5053857;28;20479;-75
2023/07/12 11:24:45;;;;;;;9.18;3.90;;;;;;;;;;5052934;28;20033;-72
2023/07/12 11:27:54;;;;;;;8.68;3.55;;;;;;;;;;5054454;28;20025;-75
2023/07/12 11:30:26;;;;;;;8.18;3.15;;;;;;;;;;5052697;28;20045;-75
2023/07/12 11:32:57;;;;;;;6.13;2.95;;;;;;;;;;5052340;28;20025;-74
2023/07/12 11:35:48;;;;;;;9.38;3.40;;;;;;;;;;5053363;28;20017;-76
2023/07/12 11:38:22;;;;;;;6.05;2.90;;;;;;;;;;5053096;28;20024;-75
2023/07/12 11:40:51;;;;;;;8.57;3.53;;;;;;;;;;5053398;28;20035;-75
2023/07/12 11:43:22;;;;;;;6.97;3.38;;;;;;;;;;5053319;28;20025;-75
2023/07/12 11:45:48;;;;;;;8.48;2.97;;;;;;;;;;5053098;28;20051;-75
2023/07/12 11:48:13;;;;;;;9.13;3.90;;;;;;;;;;5053809;28;20032;-75
2023/07/12 11:50:39;;;;;;;8.00;3.45;;;;;;;;;;5053259;28;20088;-74
2023/07/12 11:53:05;;;;;;;8.70;3.60;;;;;;;;;;5053253;28;20025;-76
2023/07/12 11:55:34;;;;;;;8.02;3.60;;;;;;;;;;5053288;28;20084;-75
2023/07/12 11:57:59;;;;;;;6.97;3.50;;;;;;;;;;5053324;28;20387;-75
2023/07/12 12:00:28;;;;;;;8.20;3.73;;;;;;;;;;5053007;28;20025;-75
2023/07/12 12:02:56;;;;;;;6.38;2.95;;;;;;;;;;5052958;28;20605;-75
2023/07/12 12:05:27;;;;;;;5.65;3.30;;;;;;;;;;5052812;28;20380;-76
2023/07/12 12:07:55;;;;;;;7.78;3.28;;;;;;;;;;5053060;28;20127;-74
2023/07/12 12:10:29;;;;;;;5.78;3.33;;;;;;;;;;5052980;28;20024;-75
2023/07/12 12:12:54;;;;;;;8.30;3.50;;;;;;;;;;5053372;28;20147;-75
2023/07/12 12:15:25;;;;;;;7.40;3.42;;;;;;;;;;5053242;28;20044;-76
2023/07/12 12:17:52;;;;;;;6.03;3.00;;;;;;;;;;5053037;28;20076;-75
2023/07/12 12:20:26;;;;;;;6.30;3.08;;;;;;;;;;5053038;28;20021;-75
2023/07/12 12:23:04;;;;;;;6.43;3.17;;;;;;;;;;5053058;28;20060;-74
2023/07/12 12:25:29;;;;;;;6.35;3.47;;;;;;;;;;5052522;28;20021;-75
2023/07/12 12:27:55;;;;;;;7.18;3.42;;;;;;;;;;5052710;28;20070;-75
2023/07/12 12:30:29;;;;;;;5.07;3.03;;;;;;;;;;5052638;28;20040;-75
2023/07/12 12:33:19;;;;;;;6.22;3.42;;;;;;;;;;5052303;28;20020;-75
2023/07/12 12:35:47;;;;;;;6.65;3.70;;;;;;;;;;5053858;28;20427;-75
2023/07/12 12:38:21;;;;;;;7.43;3.45;;;;;;;;;;5055519;28;20021;-74
2023/07/12 12:40:56;;;;;;;5.20;3.22;;;;;;;;;;5056606;28;20506;-75
2023/07/12 12:43:23;;;;;;;7.40;3.28;;;;;;;;;;5057296;28;20496;-75
2023/07/12 12:45:48;;;;;;;7.88;3.45;;;;;;;;;;5055218;28;20048;-75
2023/07/12 12:48:14;;;;;;;7.10;3.90;;;;;;;;;;5056610;28;20056;-74
2023/07/12 12:50:39;;;;;;;7.50;3.63;;;;;;;;;;5055325;28;20031;-75
2023/07/12 12:53:05;;;;;;;7.22;3.85;;;;;;;;;;5055329;28;20032;-75
2023/07/12 12:55:33;;;;;;;5.43;3.15;;;;;;;;;;5055136;28;20028;-75
2023/07/12 12:57:59;;;;;;;4.30;3.05;;;;;;;;;;5056464;28;20071;-75
2023/07/12 13:00:26;;;;;;;5.95;3.15;;;;;;;;;;5056614;28;20471;-74
2023/07/12 13:02:53;;;;;;;8.23;3.65;;;;;;;;;;5056638;28;20033;-75
2023/07/12 13:05:18;;;;;;;9.88;3.38;;;;;;;;;;5056253;28;20051;-75
2023/07/12 13:07:44;;;;;;;7.50;3.45;;;;;;;;;;5056557;28;20029;-76
2023/07/12 13:10:19;;;;;;;8.05;3.42;;;;;;;;;;5056428;28;20025;-75
2023/07/12 13:12:45;;;;;;;7.50;3.33;;;;;;;;;;5056150;28;20130;-75
2023/07/12 13:15:22;;;;;;;8.48;3.25;;;;;;;;;;5054747;28;20021;-76
2023/07/12 13:17:49;;;;;;;6.35;3.60;;;;;;;;;;5054727;28;20025;-75
2023/07/12 13:20:18;;;;;;;6.25;3.33;;;;;;;;;;5055923;28;20028;-74
2023/07/12 13:22:45;;;;;;;7.65;3.30;;;;;;;;;;5056116;28;20402;-74
2023/07/12 13:25:11;;;;;;;6.35;3.47;;;;;;;;;;5055662;28;20017;-75
2023/07/12 13:27:39;;;;;;;7.07;3.13;;;;;;;;;;5055843;28;20024;-74
2023/07/12 13:30:17;;;;;;;5.97;3.10;;;;;;;;;;5055863;28;20029;-75
2023/07/12 13:32:43;;;;;;;4.43;3.10;;;;;;;;;;5054430;28;20494;-74
2023/07/12 13:35:15;;;;;;;12.55;3.35;;;;;;;;;;5055621;28;20103;-75
2023/07/12 13:37:41;;;;;;;4.78;3.10;;;;;;;;;;5055704;28;20071;-75
2023/07/12 13:40:12;;;;;;;8.70;3.17;;;;;;;;;;5055464;28;20024;-74
2023/07/12 13:42:37;;;;;;;5.45;3.38;;;;;;;;;;5055710;28;20025;-75
2023/07/12 13:45:03;;;;;;;5.13;2.93;;;;;;;;;;5055398;28;20024;-75
2023/07/12 13:47:29;;;;;;;5.57;3.00;;;;;;;;;;5055102;28;20031;-75
2023/07/12 13:49:55;;;;;;;4.03;3.20;;;;;;;;;;5055386;28;20108;-75
2023/07/12 13:52:24;;;;;;;4.15;2.67;;;;;;;;;;5055677;28;20315;-74
2023/07/12 13:54:50;;;;;;;4.47;3.00;;;;;;;;;;5055335;28;20020;-75
2023/07/12 13:57:18;;;;;;;3.38;2.60;;;;;;;;;;5054062;28;20391;-75
2023/07/12 13:59:47;;;;;;;4.22;2.38;;;;;;;;;;5055447;28;20025;-75
2023/07/12 14:02:21;;;;;;;3.83;2.30;;;;;;;;;;5055209;28;20028;-75
2023/07/12 14:04:46;;;;;;;6.80;2.40;;;;;;;;;;5055251;28;20056;-74
2023/07/12 14:07:12;;;;;;;5.43;2.47;;;;;;;;;;5055147;28;20057;-75
2023/07/12 14:09:38;;;;;;;3.25;2.33;;;;;;;;;;5055160;28;20428;-75
2023/07/12 14:12:10;;;;;;;3.55;2.30;;;;;;;;;;5054938;28;20033;-75
2023/07/12 14:14:35;;;;;;;3.77;2.30;;;;;;;;;;5055017;28;20163;-75
2023/07/12 14:17:01;;;;;;;3.20;2.00;;;;;;;;;;5054691;28;20447;-75
2023/07/12 14:19:26;;;;;;;6.50;2.17;;;;;;;;;;5054770;28;20262;-75
2023/07/12 14:21:51;;;;;;;3.93;1.60;;;;;;;;;;5055181;28;20265;-75
2023/07/12 14:24:17;;;;;;;2.55;1.88;;;;;;;;;;5054744;28;20028;-75
2023/07/12 14:26:42;;;;;;;2.10;1.60;;;;;;;;;;5054516;28;20434;-75
2023/07/12 14:29:07;;;;;;;11.83;1.90;;;;;;;;;;5054563;28;20454;-75
2023/07/12 14:31:34;;;;;;;2.60;1.77;;;;;;;;;;5054764;28;20447;-75
2023/07/12 14:33:59;;;;;;;2.92;1.70;;;;;;;;;;5054689;28;20514;-75
2023/07/12 14:36:25;;;;;;;4.60;1.70;;;;;;;;;;5052690;28;20033;-75
2023/07/12 14:38:51;;;;;;;2.85;1.80;;;;;;;;;;5054227;28;20044;-75
2023/07/12 14:41:20;;;;;;;3.58;1.65;;;;;;;;;;5052917;28;20486;-75
2023/07/12 14:43:47;;;;;;;2.92;1.55;;;;;;;;;;5052980;28;20071;-75
2023/07/12 14:46:14;;;;;;;5.45;1.52;;;;;;;;;;5054111;28;20553;-75